Time;durP1;ratioP1;P1;durP2;ratioP2;P2;SDS_P1;SDS_P2;PMS_P1;PMS_P2;Temp;Humidity;BMP_temperature;BMP_pressure;BME280_temperature;BME280_humidity;BME280_pressure;Samples;Min_cycle;Max_cycle;Signal;HPM_P1;HPM_P2
2022/05/29 00:00:48;;;;;;;;;;;13.10;99.90;;;;;;5073912;28;19919;-77
2022/05/29 00:03:13;;;;;;;;;;;12.80;99.90;;;;;;5074141;28;20333;-77
2022/05/29 00:05:40;;;;;;;;;;;12.90;99.90;;;;;;5073849;28;19908;-76
2022/05/29 00:08:06;;;;;;;;;;;13.10;99.90;;;;;;5073872;28;19909;-77
2022/05/29 00:10:35;;;;;;;;;;;13.30;99.90;;;;;;5073694;28;20373;-76
2022/05/29 00:13:00;;;;;;;;;;;13.40;99.90;;;;;;5073711;28;19908;-76
2022/05/29 00:15:26;;;;;;;;;;;13.30;99.90;;;;;;5055742;28;19958;-76
2022/05/29 00:17:52;;;;;;;;;;;13.20;99.90;;;;;;5073714;28;19951;-75
2022/05/29 00:20:17;;;;;;;;;;;13.20;99.90;;;;;;5073674;28;20360;-76
2022/05/29 00:22:43;;;;;;;;;;;13.10;99.90;;;;;;5074016;28;19908;-75
2022/05/29 00:25:10;;;;;;;;;;;13.10;99.90;;;;;;5073748;28;19916;-75
2022/05/29 00:27:35;;;;;;;;;;;13.10;99.90;;;;;;5073703;28;20276;-75
2022/05/29 00:30:02;;;;;;;;;;;13.10;99.90;;;;;;5073551;28;19909;-77
2022/05/29 00:32:28;;;;;;;;;;;13.10;99.90;;;;;;5073460;28;19931;-76
2022/05/29 00:34:53;;;;;;;;;;;13.00;99.90;;;;;;5073535;28;19912;-76
2022/05/29 00:37:19;;;;;;;;;;;12.90;99.90;;;;;;5073350;28;19928;-76
2022/05/29 00:39:45;;;;;;;;;;;12.90;99.90;;;;;;5073468;28;20281;-78
2022/05/29 00:42:12;;;;;;;;;;;12.90;99.90;;;;;;5073450;28;19909;-76
2022/05/29 00:44:38;;;;;;;;;;;13.10;99.90;;;;;;5055459;28;20010;-75
2022/05/29 00:47:10;;;;;;;;;;;13.10;99.90;;;;;;5055431;28;19913;-76
2022/05/29 00:49:37;;;;;;;;;;;12.90;99.90;;;;;;5073434;28;19915;-76
2022/05/29 00:52:06;;;;;;;;;;;13.00;99.90;;;;;;5073315;28;19919;-76
2022/05/29 00:54:58;;;;;;;;;;;12.90;99.90;;;;;;5073354;28;20356;-77
2022/05/29 00:57:35;;;;;;;;;;;12.90;99.90;;;;;;5072012;28;19909;-78
2022/05/29 01:00:05;;;;;;;;;;;12.80;99.90;;;;;;5070891;28;19915;-75
2022/05/29 01:02:30;;;;;;;;;;;12.90;99.90;;;;;;5077133;28;19908;-76
2022/05/29 01:04:57;;;;;;;;;;;12.90;99.90;;;;;;5077182;28;19916;-77
2022/05/29 01:07:24;;;;;;;;;;;12.90;99.90;;;;;;5077308;28;19994;-77
2022/05/29 01:09:50;;;;;;;;;;;12.90;99.90;;;;;;5077139;28;20356;-75
2022/05/29 01:12:24;;;;;;;;;;;12.70;99.90;;;;;;5076889;28;20004;-77
2022/05/29 01:14:56;;;;;;;;;;;12.80;99.90;;;;;;5077466;28;19908;-76
2022/05/29 01:17:30;;;;;;;;;;;12.70;99.90;;;;;;5077065;28;19958;-75
2022/05/29 01:20:02;;;;;;;;;;;12.70;99.90;;;;;;5076888;28;19909;-75
2022/05/29 01:22:46;;;;;;;;;;;12.70;99.90;;;;;;5076844;28;19938;-76
2022/05/29 01:25:21;;;;;;;;;;;12.80;99.90;;;;;;5076774;28;20391;-77
2022/05/29 01:28:05;;;;;;;;;;;12.60;99.90;;;;;;5076901;28;19915;-77
2022/05/29 01:30:34;;;;;;;;;;;12.60;99.90;;;;;;5076794;28;19909;-78
2022/05/29 01:33:09;;;;;;;;;;;12.50;99.90;;;;;;5076757;28;19909;-74
2022/05/29 01:35:37;;;;;;;;;;;12.30;99.90;;;;;;5058729;28;19915;-74
2022/05/29 01:38:16;;;;;;;;;;;12.30;99.90;;;;;;5076572;28;19915;-77
2022/05/29 01:40:46;;;;;;;;;;;12.20;99.90;;;;;;5076886;28;20383;-75
2022/05/29 01:43:29;;;;;;;;;;;12.20;99.90;;;;;;5076488;28;19948;-75
2022/05/29 01:45:59;;;;;;;;;;;12.20;99.90;;;;;;5076479;28;19909;-76
2022/05/29 01:48:33;;;;;;;;;;;12.20;99.90;;;;;;5058451;28;19908;-76
2022/05/29 01:51:03;;;;;;;;;;;12.20;99.90;;;;;;5076694;28;19913;-77
2022/05/29 01:53:32;;;;;;;;;;;12.10;99.90;;;;;;5076325;28;19916;-76
2022/05/29 01:56:00;;;;;;;;;;;12.00;99.90;;;;;;5076415;28;19912;-76
2022/05/29 01:58:35;;;;;;;;;;;11.90;99.90;;;;;;5076187;28;19908;-76
2022/05/29 02:01:03;;;;;;;;;;;12.00;99.90;;;;;;5058221;28;19908;-76
2022/05/29 02:03:31;;;;;;;;;;;12.10;99.90;;;;;;5076305;28;19908;-78
2022/05/29 02:06:05;;;;;;;;;;;12.10;99.90;;;;;;5075647;28;19913;-78
2022/05/29 02:08:37;;;;;;;;;;;12.10;99.90;;;;;;5076233;28;19909;-75
2022/05/29 02:11:03;;;;;;;;;;;12.10;99.90;;;;;;5076126;28;19912;-75
2022/05/29 02:13:58;;;;;;;;;;;12.10;99.90;;;;;;5075958;28;20066;-73
2022/05/29 02:16:26;;;;;;;;;;;12.20;99.90;;;;;;5058274;28;19915;-76
2022/05/29 02:19:01;;;;;;;;;;;12.20;99.90;;;;;;5075827;28;20249;-76
2022/05/29 02:21:36;;;;;;;;;;;12.30;99.90;;;;;;5075780;28;19909;-75
2022/05/29 02:24:04;;;;;;;;;;;12.20;99.90;;;;;;5057755;28;19908;-75
2022/05/29 02:26:33;;;;;;;;;;;12.30;99.90;;;;;;5075665;28;19908;-76
2022/05/29 02:29:02;;;;;;;;;;;12.20;99.90;;;;;;5075979;28;20262;-77
2022/05/29 02:31:46;;;;;;;;;;;12.20;99.90;;;;;;5075665;28;19917;-76
2022/05/29 02:34:30;;;;;;;;;;;12.20;99.90;;;;;;5075508;28;19915;-76
2022/05/29 02:37:10;;;;;;;;;;;12.10;99.90;;;;;;5075368;28;19924;-74
2022/05/29 02:39:36;;;;;;;;;;;12.10;99.90;;;;;;5075538;28;19909;-77
2022/05/29 02:42:11;;;;;;;;;;;12.00;99.90;;;;;;5075378;28;20003;-76
2022/05/29 02:44:48;;;;;;;;;;;11.90;99.90;;;;;;5075283;28;19995;-77
2022/05/29 02:47:28;;;;;;;;;;;11.80;99.90;;;;;;5075591;28;20300;-76
2022/05/29 02:50:12;;;;;;;;;;;11.80;99.90;;;;;;5075200;28;20468;-76
2022/05/29 02:52:38;;;;;;;;;;;11.90;99.90;;;;;;5057125;28;19912;-75
2022/05/29 02:55:04;;;;;;;;;;;11.90;99.90;;;;;;5075233;28;20254;-74
2022/05/29 02:57:29;;;;;;;;;;;12.00;99.90;;;;;;5075007;28;20250;-78
2022/05/29 03:00:02;;;;;;;;;;;11.80;99.90;;;;;;5075093;28;19909;-76
2022/05/29 03:02:35;;;;;;;;;;;11.90;99.90;;;;;;5075206;28;19958;-77
2022/05/29 03:05:11;;;;;;;;;;;11.80;99.90;;;;;;5075246;28;20287;-77
2022/05/29 03:07:46;;;;;;;;;;;11.80;99.90;;;;;;5075140;28;20026;-74
2022/05/29 03:10:20;;;;;;;;;;;11.70;99.90;;;;;;5074809;28;19908;-77
2022/05/29 03:12:55;;;;;;;;;;;11.80;99.90;;;;;;5056713;28;19966;-76
2022/05/29 03:15:29;;;;;;;;;;;12.00;99.90;;;;;;5074687;28;19999;-74
2022/05/29 03:17:54;;;;;;;;;;;12.00;99.90;;;;;;5074106;28;19909;-75
2022/05/29 03:20:26;;;;;;;;;;;12.00;99.90;;;;;;5056674;28;20382;-75
2022/05/29 03:22:51;;;;;;;;;;;11.90;99.90;;;;;;5056547;28;19942;-75
2022/05/29 03:25:43;;;;;;;;;;;11.80;99.90;;;;;;5074717;28;20354;-76
2022/05/29 03:28:13;;;;;;;;;;;11.70;99.90;;;;;;5070402;28;19915;-77
2022/05/29 03:30:40;;;;;;;;;;;11.60;99.90;;;;;;5074374;28;19908;-76
2022/05/29 03:33:07;;;;;;;;;;;11.70;99.90;;;;;;5074553;28;19958;-75
2022/05/29 03:35:41;;;;;;;;;;;11.70;99.90;;;;;;5074337;28;19915;-76
2022/05/29 03:38:07;;;;;;;;;;;11.70;99.90;;;;;;5056100;28;19927;-76
2022/05/29 03:40:33;;;;;;;;;;;11.70;99.90;;;;;;5074633;28;19909;-75
2022/05/29 03:42:59;;;;;;;;;;;11.50;99.90;;;;;;5074208;28;20352;-74
2022/05/29 03:45:25;;;;;;;;;;;11.50;99.90;;;;;;5074190;28;19916;-76
2022/05/29 03:47:50;;;;;;;;;;;11.40;99.90;;;;;;5074158;28;19916;-77
2022/05/29 03:50:17;;;;;;;;;;;11.40;99.90;;;;;;5074321;28;19912;-75
2022/05/29 03:52:44;;;;;;;;;;;11.30;99.90;;;;;;5055995;28;20289;-76
2022/05/29 03:55:10;;;;;;;;;;;11.20;99.90;;;;;;5074012;28;19909;-77
2022/05/29 03:57:35;;;;;;;;;;;11.10;99.90;;;;;;5074026;28;19908;-74
2022/05/29 04:00:02;;;;;;;;;;;11.10;99.90;;;;;;5055939;28;20345;-78
2022/05/29 04:02:28;;;;;;;;;;;11.10;99.90;;;;;;5055927;28;20289;-77
2022/05/29 04:04:54;;;;;;;;;;;11.10;99.90;;;;;;5073872;28;19914;-75
2022/05/29 04:07:19;;;;;;;;;;;11.10;99.90;;;;;;5073830;28;19987;-77
2022/05/29 04:12:29;;;;;;;;;;;11.00;99.90;;;;;;5073843;28;20004;-74
2022/05/29 04:14:55;;;;;;;;;;;11.10;99.90;;;;;;5073966;28;19948;-75
2022/05/29 04:17:21;;;;;;;;;;;11.10;99.90;;;;;;5073694;28;19935;-77
2022/05/29 04:19:46;;;;;;;;;;;11.10;99.90;;;;;;5073751;28;19987;-76
2022/05/29 04:22:16;;;;;;;;;;;11.10;99.90;;;;;;5073647;28;19915;-76
2022/05/29 04:24:42;;;;;;;;;;;11.20;99.90;;;;;;5073653;28;19916;-76
2022/05/29 04:27:09;;;;;;;;;;;11.20;99.90;;;;;;5073643;28;19913;-75
2022/05/29 04:29:35;;;;;;;;;;;11.20;99.90;;;;;;5073704;28;19913;-77
2022/05/29 04:34:45;;;;;;;;;;;11.40;99.90;;;;;;5073817;28;19966;-76
2022/05/29 04:37:10;;;;;;;;;;;11.30;99.90;;;;;;5051999;28;19921;-74
2022/05/29 04:39:36;;;;;;;;;;;11.50;99.90;;;;;;5053504;28;19916;-76
2022/05/29 04:42:02;;;;;;;;;;;11.40;99.90;;;;;;5053429;28;19909;-74
2022/05/29 04:44:28;;;;;;;;;;;11.40;99.90;;;;;;5053356;28;20385;-77
2022/05/29 04:46:57;;;;;;;;;;;11.50;99.90;;;;;;5053544;28;20388;-76
2022/05/29 04:49:22;;;;;;;;;;;11.50;99.90;;;;;;5053452;28;19916;-77
2022/05/29 04:51:48;;;;;;;;;;;11.70;99.90;;;;;;5053252;28;19912;-78
2022/05/29 04:54:13;;;;;;;;;;;11.70;99.90;;;;;;5053577;28;20285;-77
2022/05/29 04:56:39;;;;;;;;;;;11.80;99.90;;;;;;5053474;28;19916;-77
2022/05/29 04:59:05;;;;;;;;;;;11.90;99.90;;;;;;5053274;28;19909;-76
2022/05/29 05:01:30;;;;;;;;;;;11.60;99.90;;;;;;5051952;28;19996;-76
2022/05/29 05:03:56;;;;;;;;;;;11.70;99.90;;;;;;5053278;28;20008;-75
2022/05/29 05:06:21;;;;;;;;;;;11.70;99.90;;;;;;5053393;28;19909;-75
2022/05/29 05:08:47;;;;;;;;;;;11.80;99.90;;;;;;5053261;28;19912;-77
2022/05/29 05:11:13;;;;;;;;;;;11.80;99.90;;;;;;5053068;28;20289;-74
2022/05/29 05:13:38;;;;;;;;;;;12.00;99.90;;;;;;5051871;28;19916;-75
2022/05/29 05:16:04;;;;;;;;;;;12.00;99.90;;;;;;5053275;28;20331;-78
2022/05/29 05:18:30;;;;;;;;;;;12.00;99.90;;;;;;5051844;28;19913;-75
2022/05/29 05:20:56;;;;;;;;;;;12.10;99.90;;;;;;5053103;28;20386;-76
2022/05/29 05:23:21;;;;;;;;;;;12.10;99.90;;;;;;5053116;28;19913;-76
2022/05/29 05:25:47;;;;;;;;;;;12.10;99.90;;;;;;5053073;28;19951;-76
2022/05/29 05:28:13;;;;;;;;;;;12.10;99.90;;;;;;5053039;28;19948;-75
2022/05/29 05:30:39;;;;;;;;;;;12.10;99.90;;;;;;5053050;28;19909;-75
2022/05/29 05:33:04;;;;;;;;;;;12.10;99.90;;;;;;5053157;28;19916;-75
2022/05/29 05:35:30;;;;;;;;;;;12.10;99.90;;;;;;5052894;28;19920;-78
2022/05/29 05:37:56;;;;;;;;;;;12.30;99.90;;;;;;5072094;28;19931;-78
2022/05/29 05:40:21;;;;;;;;;;;12.30;99.90;;;;;;5073057;28;19985;-76
2022/05/29 05:42:47;;;;;;;;;;;12.40;99.90;;;;;;5075790;28;19916;-76
2022/05/29 05:45:13;;;;;;;;;;;12.30;99.90;;;;;;5076482;28;19908;-76
2022/05/29 05:47:39;;;;;;;;;;;12.30;99.90;;;;;;5076438;28;19909;-76
2022/05/29 05:50:05;;;;;;;;;;;12.40;99.90;;;;;;5076392;28;19908;-76
2022/05/29 05:52:30;;;;;;;;;;;12.40;99.90;;;;;;5076259;28;19912;-77
2022/05/29 05:54:56;;;;;;;;;;;12.60;99.90;;;;;;5076270;28;19913;-74
2022/05/29 05:57:21;;;;;;;;;;;12.60;99.90;;;;;;5058257;28;19908;-77
2022/05/29 05:59:47;;;;;;;;;;;12.80;99.90;;;;;;5076372;28;19912;-76
2022/05/29 06:02:13;;;;;;;;;;;12.80;99.90;;;;;;5076362;28;19909;-75
2022/05/29 06:04:40;;;;;;;;;;;12.90;99.90;;;;;;5076143;28;19912;-76
2022/05/29 06:07:06;;;;;;;;;;;12.80;99.90;;;;;;5058081;28;19954;-75
2022/05/29 06:09:32;;;;;;;;;;;12.90;99.90;;;;;;5076288;28;19944;-77
2022/05/29 06:11:58;;;;;;;;;;;13.00;99.90;;;;;;5075869;28;19985;-78
2022/05/29 06:14:23;;;;;;;;;;;13.00;99.90;;;;;;5076220;28;20420;-77
2022/05/29 06:16:49;;;;;;;;;;;13.10;99.90;;;;;;5075967;28;19912;-76
2022/05/29 06:19:15;;;;;;;;;;;13.10;99.90;;;;;;5075822;28;19932;-76
2022/05/29 06:21:40;;;;;;;;;;;13.20;99.90;;;;;;5075801;28;19908;-75
2022/05/29 06:24:06;;;;;;;;;;;13.20;99.90;;;;;;5057807;28;19909;-76
2022/05/29 06:26:31;;;;;;;;;;;13.30;99.90;;;;;;5075927;28;19909;-76
2022/05/29 06:28:57;;;;;;;;;;;13.50;99.90;;;;;;5075698;28;19978;-77
2022/05/29 06:31:23;;;;;;;;;;;13.50;98.90;;;;;;5075597;28;19913;-76
2022/05/29 06:33:49;;;;;;;;;;;13.40;99.90;;;;;;5075421;28;19912;-76
2022/05/29 06:36:15;;;;;;;;;;;13.40;99.90;;;;;;5075658;28;19943;-77
2022/05/29 06:38:41;;;;;;;;;;;13.50;98.80;;;;;;5075570;28;19951;-76
2022/05/29 06:41:08;;;;;;;;;;;13.60;98.30;;;;;;5075447;28;19909;-77
2022/05/29 06:43:34;;;;;;;;;;;13.60;97.20;;;;;;5075410;28;19936;-76
2022/05/29 06:46:00;;;;;;;;;;;13.80;97.80;;;;;;5057364;28;19968;-76
2022/05/29 06:48:26;;;;;;;;;;;13.90;96.70;;;;;;5075268;28;19909;-76
2022/05/29 06:50:52;;;;;;;;;;;13.80;95.70;;;;;;5075198;28;19999;-77
2022/05/29 06:53:18;;;;;;;;;;;13.80;95.50;;;;;;5074076;28;19912;-75
2022/05/29 06:55:50;;;;;;;;;;;14.00;96.20;;;;;;5075135;28;19915;-74
2022/05/29 06:58:16;;;;;;;;;;;14.20;95.20;;;;;;5075251;28;20386;-75
2022/05/29 07:08:54;;;;;;;;;;;14.40;92.30;;;;;;5074963;28;19958;-76
2022/05/29 07:11:21;;;;;;;;;;;14.60;92.70;;;;;;5074722;28;19912;-78
2022/05/29 07:13:47;;;;;;;;;;;14.60;90.40;;;;;;5074795;28;20341;-78
2022/05/29 07:16:15;;;;;;;;;;;14.60;90.40;;;;;;5074878;28;19982;-75
2022/05/29 07:18:40;;;;;;;;;;;14.60;90.90;;;;;;5074825;28;20422;-74
2022/05/29 07:21:06;;;;;;;;;;;14.80;90.80;;;;;;5074721;28;19912;-74
2022/05/29 07:23:33;;;;;;;;;;;14.80;88.40;;;;;;5056645;28;19932;-74
2022/05/29 07:25:58;;;;;;;;;;;14.90;85.90;;;;;;5056605;28;19990;-76
2022/05/29 07:28:24;;;;;;;;;;;14.90;85.90;;;;;;5056583;28;20397;-76
2022/05/29 07:30:51;;;;;;;;;;;15.20;84.80;;;;;;5074414;28;19936;-77
2022/05/29 07:33:17;;;;;;;;;;;16.20;83.80;;;;;;5074390;28;20413;-76
2022/05/29 07:35:42;;;;;;;;;;;19.00;73.00;;;;;;5074305;28;19908;-77
2022/05/29 07:38:08;;;;;;;;;;;21.50;65.20;;;;;;5074560;28;19919;-77
2022/05/29 07:40:34;;;;;;;;;;;22.90;59.10;;;;;;5074290;28;19908;-77
2022/05/29 07:45:45;;;;;;;;;;;24.20;52.70;;;;;;5074266;28;19958;-78
2022/05/29 07:48:12;;;;;;;;;;;24.80;50.90;;;;;;5074202;28;19948;-76
2022/05/29 07:50:38;;;;;;;;;;;25.30;50.40;;;;;;5056125;28;20358;-77
2022/05/29 07:53:03;;;;;;;;;;;25.50;48.50;;;;;;5074051;28;19944;-76
2022/05/29 07:55:29;;;;;;;;;;;24.70;48.70;;;;;;5074008;28;19908;-76
2022/05/29 07:57:54;;;;;;;;;;;24.50;47.40;;;;;;5073973;28;19908;-76
2022/05/29 08:00:21;;;;;;;;;;;24.20;48.30;;;;;;5073905;28;19915;-77
2022/05/29 08:02:46;;;;;;;;;;;23.90;47.60;;;;;;5073844;28;19909;-77
2022/05/29 08:05:14;;;;;;;;;;;23.60;48.90;;;;;;5073665;28;19908;-77
2022/05/29 08:07:40;;;;;;;;;;;23.70;48.30;;;;;;5073841;28;19916;-76
2022/05/29 08:10:06;;;;;;;;;;;22.90;48.80;;;;;;5074181;28;19908;-76
2022/05/29 08:12:31;;;;;;;;;;;22.90;49.50;;;;;;5073713;28;19912;-78
2022/05/29 08:14:57;;;;;;;;;;;22.60;50.30;;;;;;5073814;28;19970;-78
2022/05/29 08:17:22;;;;;;;;;;;22.40;50.00;;;;;;5073748;28;20003;-76
2022/05/29 08:19:48;;;;;;;;;;;21.90;51.20;;;;;;5055784;28;19909;-76
2022/05/29 08:22:14;;;;;;;;;;;21.80;50.90;;;;;;5073994;28;19936;-78
2022/05/29 08:33:02;;;;;;;;;;;22.90;50.20;;;;;;5073661;28;20001;-77
2022/05/29 08:35:29;;;;;;;;;;;22.50;49.10;;;;;;5073941;28;20327;-75
2022/05/29 08:37:55;;;;;;;;;;;22.50;49.40;;;;;;5055099;28;19921;-76
2022/05/29 08:40:21;;;;;;;;;;;22.60;50.40;;;;;;5073568;28;19909;-77
2022/05/29 08:42:46;;;;;;;;;;;22.70;49.40;;;;;;5073735;28;19912;-77
2022/05/29 08:45:14;;;;;;;;;;;23.20;49.50;;;;;;5073462;28;19940;-78
2022/05/29 08:47:41;;;;;;;;;;;23.60;48.00;;;;;;5073591;28;19909;-77
2022/05/29 08:50:10;;;;;;;;;;;23.70;48.80;;;;;;5073529;28;19916;-77
2022/05/29 08:52:39;;;;;;;;;;;23.50;48.10;;;;;;5055325;28;19917;-77
2022/05/29 08:55:04;;;;;;;;;;;23.30;48.50;;;;;;5073403;28;20312;-77
2022/05/29 08:57:37;;;;;;;;;;;23.40;47.20;;;;;;5055395;28;19938;-78
2022/05/29 09:00:05;;;;;;;;;;;23.20;47.20;;;;;;5073348;28;19908;-75
2022/05/29 09:02:30;;;;;;;;;;;23.20;47.60;;;;;;5055285;28;19995;-76
2022/05/29 09:05:02;;;;;;;;;;;23.10;47.70;;;;;;5073324;28;20007;-75
2022/05/29 09:07:32;;;;;;;;;;;23.70;48.20;;;;;;5073243;28;19912;-77
2022/05/29 09:10:05;;;;;;;;;;;24.30;47.90;;;;;;5055321;28;19916;-77
2022/05/29 09:12:34;;;;;;;;;;;24.90;45.60;;;;;;5073087;28;20269;-77
2022/05/29 09:15:04;;;;;;;;;;;24.70;44.70;;;;;;5073219;28;19962;-77
2022/05/29 09:17:31;;;;;;;;;;;24.50;45.70;;;;;;5075904;28;19908;-77
2022/05/29 09:20:00;;;;;;;;;;;24.80;44.30;;;;;;5077027;28;19908;-75
2022/05/29 09:22:30;;;;;;;;;;;25.60;44.10;;;;;;5076859;28;19913;-76
2022/05/29 09:25:14;;;;;;;;;;;25.50;42.80;;;;;;5076842;28;20403;-77
2022/05/29 09:27:43;;;;;;;;;;;25.20;44.10;;;;;;5076760;28;19999;-77
2022/05/29 09:30:09;;;;;;;;;;;26.50;43.80;;;;;;5076702;28;19916;-78
2022/05/29 09:32:36;;;;;;;;;;;25.80;42.00;;;;;;5076928;28;19912;-77
2022/05/29 09:35:01;;;;;;;;;;;26.00;42.90;;;;;;5076778;28;19908;-76
2022/05/29 09:37:45;;;;;;;;;;;26.40;43.70;;;;;;5076173;28;20034;-76
2022/05/29 09:40:16;;;;;;;;;;;27.50;42.10;;;;;;5058607;28;19958;-77
2022/05/29 09:42:43;;;;;;;;;;;26.90;43.00;;;;;;5076510;28;20023;-75
2022/05/29 09:45:15;;;;;;;;;;;25.00;42.50;;;;;;5075979;28;20216;-77
2022/05/29 09:50:45;;;;;;;;;;;26.00;43.70;;;;;;5076450;28;20001;-77
2022/05/29 09:53:12;;;;;;;;;;;26.30;43.00;;;;;;5076386;28;19913;-76
2022/05/29 09:55:39;;;;;;;;;;;26.10;43.40;;;;;;5076316;28;20287;-76
2022/05/29 09:58:09;;;;;;;;;;;26.60;43.90;;;;;;5076255;28;19908;-76
2022/05/29 10:00:39;;;;;;;;;;;27.50;42.50;;;;;;5076127;28;19908;-76
2022/05/29 10:03:06;;;;;;;;;;;26.30;41.90;;;;;;5076183;28;19908;-76
2022/05/29 10:05:37;;;;;;;;;;;26.10;42.70;;;;;;5076192;28;19915;-78
2022/05/29 10:08:17;;;;;;;;;;;26.00;43.30;;;;;;5076011;28;19999;-76
2022/05/29 10:10:43;;;;;;;;;;;26.90;43.90;;;;;;5057906;28;19962;-76
2022/05/29 10:13:08;;;;;;;;;;;28.00;42.70;;;;;;5058012;28;19908;-77
2022/05/29 10:15:36;;;;;;;;;;;27.90;41.90;;;;;;5076235;28;20385;-77
2022/05/29 10:18:08;;;;;;;;;;;27.70;41.40;;;;;;5075975;28;19913;-75
2022/05/29 10:20:35;;;;;;;;;;;28.20;41.10;;;;;;5075901;28;20422;-77
2022/05/29 10:23:02;;;;;;;;;;;28.30;41.20;;;;;;5075765;28;19909;-76
2022/05/29 10:25:30;;;;;;;;;;;27.70;41.30;;;;;;5076015;28;20415;-77
2022/05/29 10:28:00;;;;;;;;;;;27.90;42.40;;;;;;5057470;28;20361;-75
2022/05/29 10:30:35;;;;;;;;;;;29.10;42.30;;;;;;5075617;28;20001;-76
2022/05/29 10:33:08;;;;;;;;;;;29.70;41.40;;;;;;5075757;28;20372;-76
2022/05/29 10:35:35;;;;;;;;;;;29.80;40.60;;;;;;5075543;28;20269;-77
2022/05/29 10:38:24;;;;;;;;;;;30.80;39.70;;;;;;5075545;28;20297;-77
2022/05/29 10:40:59;;;;;;;;;;;30.20;40.50;;;;;;5064562;28;19912;-76
2022/05/29 10:43:37;;;;;;;;;;;29.90;39.70;;;;;;5075472;28;19912;-77
2022/05/29 10:46:23;;;;;;;;;;;30.50;40.00;;;;;;5075353;28;19912;-76
2022/05/29 10:49:08;;;;;;;;;;;30.60;39.30;;;;;;5074696;28;19912;-77
2022/05/29 10:51:33;;;;;;;;;;;32.50;39.50;;;;;;5075133;28;19919;-77
2022/05/29 10:54:17;;;;;;;;;;;31.40;39.40;;;;;;5075219;28;19908;-77
2022/05/29 10:56:52;;;;;;;;;;;31.00;38.90;;;;;;5075538;28;19909;-78
2022/05/29 10:59:20;;;;;;;;;;;31.20;39.00;;;;;;5075249;28;20312;-78
2022/05/29 11:05:13;;;;;;;;;;;32.60;38.50;;;;;;5074985;28;19958;-76
2022/05/29 11:07:42;;;;;;;;;;;30.40;39.50;;;;;;5056966;28;19915;-77
2022/05/29 11:10:08;;;;;;;;;;;31.10;38.80;;;;;;5074850;28;19913;-78
2022/05/29 11:12:39;;;;;;;;;;;32.50;38.00;;;;;;5074749;28;19919;-80
2022/05/29 11:15:23;;;;;;;;;;;33.00;38.30;;;;;;5074992;28;19948;-77
2022/05/29 11:17:48;;;;;;;;;;;33.10;37.70;;;;;;5056786;28;19912;-77
2022/05/29 11:20:14;;;;;;;;;;;32.20;37.10;;;;;;5074655;28;20399;-76
2022/05/29 11:22:45;;;;;;;;;;;30.70;38.60;;;;;;5074562;28;19909;-77
2022/05/29 11:25:20;;;;;;;;;;;30.00;39.20;;;;;;5074549;28;19908;-76
2022/05/29 11:27:55;;;;;;;;;;;28.80;39.30;;;;;;5074613;28;19951;-76
2022/05/29 11:30:20;;;;;;;;;;;28.50;40.50;;;;;;5074464;28;20289;-76
2022/05/29 11:32:58;;;;;;;;;;;27.10;41.40;;;;;;5074303;28;19912;-77
2022/05/29 11:35:36;;;;;;;;;;;26.80;43.30;;;;;;5074676;28;19908;-76
2022/05/29 11:38:20;;;;;;;;;;;28.00;42.20;;;;;;5056400;28;19920;-77
2022/05/29 11:40:48;;;;;;;;;;;27.20;41.40;;;;;;5073922;28;20391;-76
2022/05/29 11:43:14;;;;;;;;;;;27.00;42.80;;;;;;5074569;28;20391;-75
2022/05/29 11:51:31;;;;;;;;;;;27.60;44.50;;;;;;5074143;28;19919;-77
2022/05/29 11:54:16;;;;;;;;;;;30.10;42.10;;;;;;5074053;28;19908;-76
2022/05/29 11:56:47;;;;;;;;;;;29.90;41.30;;;;;;5074097;28;19915;-78
2022/05/29 11:59:31;;;;;;;;;;;29.40;40.80;;;;;;5074395;28;19987;-77
2022/05/29 12:02:01;;;;;;;;;;;29.00;42.00;;;;;;5073941;28;19908;-77
2022/05/29 12:04:31;;;;;;;;;;;28.60;41.20;;;;;;5073930;28;19909;-76
2022/05/29 12:07:05;;;;;;;;;;;27.60;42.30;;;;;;5055776;28;20332;-78
2022/05/29 12:09:36;;;;;;;;;;;28.90;42.30;;;;;;5074065;28;19909;-78
2022/05/29 12:12:07;;;;;;;;;;;30.90;39.90;;;;;;5055685;28;20005;-77
2022/05/29 12:14:35;;;;;;;;;;;30.10;39.50;;;;;;5073792;28;19909;-78
2022/05/29 12:17:06;;;;;;;;;;;30.50;40.20;;;;;;5073865;28;19915;-76
2022/05/29 12:19:38;;;;;;;;;;;29.60;39.60;;;;;;5073694;28;19944;-77
2022/05/29 12:22:08;;;;;;;;;;;29.20;40.70;;;;;;5074096;28;19912;-76
2022/05/29 12:24:36;;;;;;;;;;;28.60;40.50;;;;;;5073665;28;20413;-76
2022/05/29 12:27:11;;;;;;;;;;;29.10;40.40;;;;;;5055676;28;19908;-75
2022/05/29 12:29:44;;;;;;;;;;;30.70;39.80;;;;;;5055546;28;19951;-77
2022/05/29 12:32:20;;;;;;;;;;;30.40;39.00;;;;;;5073545;28;19912;-78
2022/05/29 12:34:52;;;;;;;;;;;31.20;39.00;;;;;;5073866;28;19908;-76
2022/05/29 12:37:38;;;;;;;;;;;31.20;38.90;;;;;;5073547;28;19920;-75
2022/05/29 12:40:22;;;;;;;;;;;31.60;36.90;;;;;;5072997;28;19908;-75
2022/05/29 12:42:50;;;;;;;;;;;31.40;37.30;;;;;;5073546;28;19943;-76
2022/05/29 12:45:25;;;;;;;;;;;29.10;38.30;;;;;;5073490;28;19908;-76
2022/05/29 12:47:51;;;;;;;;;;;28.60;38.50;;;;;;5055492;28;20000;-76
2022/05/29 12:50:16;;;;;;;;;;;29.70;38.30;;;;;;5056028;28;19954;-77
2022/05/29 12:52:42;;;;;;;;;;;31.20;37.50;;;;;;5077472;28;19912;-78
2022/05/29 12:55:08;;;;;;;;;;;30.60;37.30;;;;;;5077512;28;20003;-77
2022/05/29 12:57:38;;;;;;;;;;;28.50;38.20;;;;;;5077516;28;19916;-77
2022/05/29 13:00:19;;;;;;;;;;;27.60;40.50;;;;;;5077425;28;19987;-77
2022/05/29 13:03:02;;;;;;;;;;;28.40;41.00;;;;;;5077606;28;20261;-76
2022/05/29 13:05:51;;;;;;;;;;;29.90;39.70;;;;;;5077568;28;19918;-78
2022/05/29 13:08:42;;;;;;;;;;;30.50;38.00;;;;;;5076821;28;19912;-75
2022/05/29 13:11:09;;;;;;;;;;;31.00;38.00;;;;;;5045981;28;19919;-76
2022/05/29 13:13:34;;;;;;;;;;;31.70;36.40;;;;;;5077248;28;19909;-76
2022/05/29 13:16:20;;;;;;;;;;;31.30;37.70;;;;;;5059095;28;19908;-78
2022/05/29 13:21:51;;;;;;;;;;;29.20;38.90;;;;;;5076737;28;20292;-77
2022/05/29 13:24:17;;;;;;;;;;;27.60;39.00;;;;;;5077008;28;19909;-76
2022/05/29 13:26:43;;;;;;;;;;;28.80;39.00;;;;;;5076818;28;19914;-77
2022/05/29 13:29:29;;;;;;;;;;;30.20;38.30;;;;;;5076936;28;19916;-79
2022/05/29 13:32:24;;;;;;;;;;;29.90;37.30;;;;;;5076688;28;19913;-76
2022/05/29 13:35:12;;;;;;;;;;;29.10;38.90;;;;;;5059190;28;19915;-77
2022/05/29 13:37:40;;;;;;;;;;;29.80;39.30;;;;;;5076331;28;19977;-79
2022/05/29 13:40:07;;;;;;;;;;;30.90;37.90;;;;;;5076648;28;20360;-76
2022/05/29 13:42:35;;;;;;;;;;;31.50;37.20;;;;;;5076768;28;19987;-79
2022/05/29 13:45:21;;;;;;;;;;;30.90;37.60;;;;;;5076575;28;19909;-77
2022/05/29 13:47:48;;;;;;;;;;;29.40;37.80;;;;;;5076446;28;19908;-78
2022/05/29 13:50:13;;;;;;;;;;;29.00;38.80;;;;;;5058469;28;19962;-76
2022/05/29 13:52:42;;;;;;;;;;;30.30;39.00;;;;;;5076361;28;19913;-78
2022/05/29 13:55:33;;;;;;;;;;;31.50;37.10;;;;;;5076464;28;19999;-76
2022/05/29 14:03:59;;;;;;;;;;;30.40;37.10;;;;;;5075380;28;20011;-77
2022/05/29 14:06:25;;;;;;;;;;;29.10;39.00;;;;;;5076390;28;19908;-77
2022/05/29 14:09:14;;;;;;;;;;;30.10;39.20;;;;;;5076074;28;19954;-76
2022/05/29 14:11:48;;;;;;;;;;;31.00;37.80;;;;;;5073609;28;19912;-76
2022/05/29 14:14:29;;;;;;;;;;;30.80;36.60;;;;;;5058064;28;20003;-76
2022/05/29 14:16:56;;;;;;;;;;;30.90;36.90;;;;;;5076113;28;19912;-77
2022/05/29 14:19:21;;;;;;;;;;;32.70;36.50;;;;;;5075904;28;19908;-79
2022/05/29 14:21:56;;;;;;;;;;;32.80;36.80;;;;;;5075860;28;19958;-78
2022/05/29 14:24:27;;;;;;;;;;;33.30;36.00;;;;;;5076018;28;19914;-78
2022/05/29 14:26:57;;;;;;;;;;;33.50;35.30;;;;;;5075756;28;19909;-76
2022/05/29 14:29:26;;;;;;;;;;;33.50;35.50;;;;;;5075837;28;20276;-78
2022/05/29 14:31:54;;;;;;;;;;;34.50;35.80;;;;;;5075633;28;19912;-78
2022/05/29 14:34:26;;;;;;;;;;;34.00;35.50;;;;;;5075886;28;19909;-79
2022/05/29 14:37:11;;;;;;;;;;;33.20;35.70;;;;;;5075478;28;20364;-75
2022/05/29 14:39:45;;;;;;;;;;;31.30;36.70;;;;;;5075628;28;19908;-76
2022/05/29 14:42:20;;;;;;;;;;;31.00;36.60;;;;;;5075570;28;19915;-77
2022/05/29 14:44:54;;;;;;;;;;;32.20;36.50;;;;;;5057500;28;19915;-77
2022/05/29 14:47:24;;;;;;;;;;;32.20;35.80;;;;;;5057431;28;19914;-78
2022/05/29 14:49:56;;;;;;;;;;;31.20;36.60;;;;;;5075676;28;19908;-79
2022/05/29 14:52:41;;;;;;;;;;;32.00;37.10;;;;;;5075239;28;19935;-75
2022/05/29 14:55:11;;;;;;;;;;;33.40;36.20;;;;;;5075493;28;20368;-78
2022/05/29 14:57:49;;;;;;;;;;;33.00;35.80;;;;;;5075380;28;19916;-76
2022/05/29 15:00:41;;;;;;;;;;;31.40;35.80;;;;;;5057196;28;19967;-77
2022/05/29 15:03:18;;;;;;;;;;;31.50;37.80;;;;;;5071457;28;20320;-77
2022/05/29 15:05:51;;;;;;;;;;;33.70;36.10;;;;;;5075135;28;19912;-77
2022/05/29 15:11:05;;;;;;;;;;;29.40;37.80;;;;;;5074818;28;20011;-78
2022/05/29 15:13:34;;;;;;;;;;;32.60;37.90;;;;;;5074488;28;19916;-77
2022/05/29 15:15:59;;;;;;;;;;;31.80;36.30;;;;;;5074464;28;19966;-78
2022/05/29 15:18:25;;;;;;;;;;;31.90;36.50;;;;;;5074763;28;19909;-79
2022/05/29 15:26:23;;;;;;;;;;;34.90;34.70;;;;;;5063354;28;19909;-78